Time;durP1;ratioP1;P1;durP2;ratioP2;P2;SDS_P1;SDS_P2;PMS_P1;PMS_P2;Temp;Humidity;BMP_temperature;BMP_pressure;BME280_temperature;BME280_humidity;BME280_pressure;Samples;Min_cycle;Max_cycle;Signal;HPM_P1;HPM_P2
2021/11/25 00:02:06;;;;;;;169.88;92.30;;;;;;;;;;5083758;28;20122;-38
2021/11/25 00:04:31;;;;;;;95.80;49.20;;;;;;;;;;5085568;28;20557;-38
2021/11/25 00:06:57;;;;;;;23.70;18.15;;;;;;;;;;5085407;28;20043;-38
2021/11/25 00:09:22;;;;;;;24.50;8.98;;;;;;;;;;5083583;28;20208;-37
2021/11/25 00:11:47;;;;;;;12.38;5.28;;;;;;;;;;5081158;28;20139;-39
2021/11/25 00:14:13;;;;;;;7.65;3.92;;;;;;;;;;5084698;28;20087;-37
2021/11/25 00:16:40;;;;;;;12.13;4.45;;;;;;;;;;5083835;28;20052;-38
2021/11/25 00:19:05;;;;;;;6.88;3.63;;;;;;;;;;5084660;28;20075;-38
2021/11/25 00:21:31;;;;;;;6.70;3.65;;;;;;;;;;5085689;28;20479;-38
2021/11/25 00:23:57;;;;;;;6.50;3.22;;;;;;;;;;5085032;28;20114;-37
2021/11/25 00:26:22;;;;;;;6.07;2.83;;;;;;;;;;5085369;28;20487;-38
2021/11/25 00:28:47;;;;;;;5.60;3.67;;;;;;;;;;5085150;28;20092;-38
2021/11/25 00:31:12;;;;;;;4.88;2.70;;;;;;;;;;5083744;28;20171;-37
2021/11/25 00:33:39;;;;;;;6.80;2.92;;;;;;;;;;5085077;28;20043;-38
2021/11/25 00:36:04;;;;;;;6.15;3.08;;;;;;;;;;5084264;28;20078;-40
2021/11/25 00:38:30;;;;;;;3.42;2.22;;;;;;;;;;5083912;28;20067;-38
2021/11/25 00:40:55;;;;;;;6.03;3.33;;;;;;;;;;5086036;28;20699;-37
2021/11/25 00:43:21;;;;;;;4.28;2.08;;;;;;;;;;5085005;28;20154;-39
2021/11/25 00:45:47;;;;;;;6.63;2.85;;;;;;;;;;5085450;28;20143;-39
2021/11/25 00:48:12;;;;;;;2.65;1.88;;;;;;;;;;5084694;28;20097;-39
2021/11/25 00:50:38;;;;;;;6.10;3.60;;;;;;;;;;5083577;28;20043;-38
2021/11/25 00:53:03;;;;;;;8.55;5.32;;;;;;;;;;5083569;28;20040;-38
2021/11/25 00:55:28;;;;;;;13.45;4.57;;;;;;;;;;5085696;28;20036;-37
2021/11/25 00:57:54;;;;;;;6.07;3.25;;;;;;;;;;5084380;28;20036;-37
2021/11/25 01:00:20;;;;;;;6.47;2.63;;;;;;;;;;5088491;28;20040;-37
2021/11/25 01:02:46;;;;;;;3.80;2.38;;;;;;;;;;5087466;28;20097;-37
2021/11/25 01:05:12;;;;;;;4.32;2.55;;;;;;;;;;5088336;28;20150;-38
2021/11/25 01:07:37;;;;;;;6.93;1.60;;;;;;;;;;5089302;28;20051;-38
2021/11/25 01:10:06;;;;;;;3.30;1.95;;;;;;;;;;5088649;28;20059;-37
2021/11/25 01:12:32;;;;;;;6.25;2.92;;;;;;;;;;5087463;28;20044;-39
2021/11/25 01:14:58;;;;;;;5.70;2.75;;;;;;;;;;5087672;28;20055;-39
2021/11/25 01:17:23;;;;;;;8.35;2.47;;;;;;;;;;5089134;28;20047;-38
2021/11/25 01:19:48;;;;;;;4.70;3.22;;;;;;;;;;5087601;28;20040;-38
2021/11/25 01:22:14;;;;;;;6.40;1.73;;;;;;;;;;5087241;28;20040;-39
2021/11/25 01:24:39;;;;;;;2.15;1.52;;;;;;;;;;5088579;28;20166;-38
2021/11/25 01:27:05;;;;;;;2.85;1.48;;;;;;;;;;5087756;28;20072;-38
2021/11/25 01:29:30;;;;;;;1.23;0.88;;;;;;;;;;5087148;28;20189;-39
2021/11/25 01:31:55;;;;;;;1.67;0.77;;;;;;;;;;5082154;28;20126;-38
2021/11/25 01:34:20;;;;;;;4.70;1.52;;;;;;;;;;5087557;28;20490;-38
2021/11/25 01:36:46;;;;;;;2.15;1.35;;;;;;;;;;5088076;28;20059;-39
2021/11/25 01:39:11;;;;;;;2.00;1.13;;;;;;;;;;5087751;28;20114;-37
2021/11/25 01:41:38;;;;;;;3.03;1.13;;;;;;;;;;5088955;28;20058;-38
2021/11/25 01:44:04;;;;;;;3.90;1.27;;;;;;;;;;5085523;28;20052;-37
2021/11/25 01:46:29;;;;;;;6.47;1.55;;;;;;;;;;5088039;28;20560;-38
2021/11/25 01:48:54;;;;;;;3.67;1.83;;;;;;;;;;5088011;28;21101;-38
2021/11/25 01:51:21;;;;;;;1.92;1.40;;;;;;;;;;5084977;28;20537;-38
2021/11/25 01:53:47;;;;;;;2.88;1.88;;;;;;;;;;5087497;28;20133;-39
2021/11/25 01:56:15;;;;;;;2.42;1.33;;;;;;;;;;5084539;28;20051;-39
2021/11/25 01:58:40;;;;;;;4.63;1.90;;;;;;;;;;5088400;28;20063;-38
2021/11/25 02:01:07;;;;;;;1.17;0.80;;;;;;;;;;5088643;28;20090;-38
2021/11/25 02:03:33;;;;;;;2.05;1.33;;;;;;;;;;5086885;28;20051;-38
2021/11/25 02:05:58;;;;;;;3.53;2.33;;;;;;;;;;5087020;28;20055;-38
2021/11/25 02:08:24;;;;;;;4.97;2.47;;;;;;;;;;5088043;28;20442;-39
2021/11/25 02:10:50;;;;;;;2.05;1.60;;;;;;;;;;5085496;28;20491;-38
2021/11/25 02:13:16;;;;;;;8.52;1.95;;;;;;;;;;5080414;28;20047;-38
2021/11/25 02:15:42;;;;;;;3.60;1.77;;;;;;;;;;5087822;28;20051;-38
2021/11/25 02:18:12;;;;;;;2.15;1.58;;;;;;;;;;5088049;28;20043;-38
2021/11/25 02:20:38;;;;;;;3.35;2.55;;;;;;;;;;5088164;28;20043;-37
2021/11/25 02:23:05;;;;;;;4.43;2.75;;;;;;;;;;5087632;28;20043;-38
2021/11/25 02:25:30;;;;;;;3.80;2.28;;;;;;;;;;5087455;28;20032;-39
2021/11/25 02:28:00;;;;;;;2.20;1.60;;;;;;;;;;5086537;28;20122;-38
2021/11/25 02:30:25;;;;;;;4.53;2.35;;;;;;;;;;5085776;28;20123;-37
2021/11/25 02:32:50;;;;;;;4.88;1.90;;;;;;;;;;5087988;28;20097;-38
2021/11/25 02:35:26;;;;;;;5.78;2.25;;;;;;;;;;5086928;28;20044;-38
2021/11/25 02:37:56;;;;;;;6.53;1.92;;;;;;;;;;5086901;28;20040;-37
2021/11/25 02:40:23;;;;;;;3.47;1.60;;;;;;;;;;5084876;28;20150;-38
2021/11/25 02:42:53;;;;;;;2.88;1.98;;;;;;;;;;5085010;28;20048;-38
2021/11/25 02:45:20;;;;;;;3.95;1.33;;;;;;;;;;5087536;28;20075;-37
2021/11/25 02:47:46;;;;;;;1.98;1.67;;;;;;;;;;5087164;28;20284;-38
2021/11/25 02:50:11;;;;;;;3.67;1.90;;;;;;;;;;5087129;28;20483;-38
2021/11/25 02:52:40;;;;;;;1.67;1.00;;;;;;;;;;5081696;28;20044;-38
2021/11/25 02:55:06;;;;;;;1.10;0.73;;;;;;;;;;5084147;28;20032;-38
2021/11/25 02:57:35;;;;;;;1.75;1.27;;;;;;;;;;5086715;28;20038;-37
2021/11/25 03:00:00;;;;;;;2.80;1.25;;;;;;;;;;5087334;28;20040;-39
2021/11/25 03:02:25;;;;;;;1.10;0.73;;;;;;;;;;5088080;28;20116;-39
2021/11/25 03:04:51;;;;;;;4.45;1.35;;;;;;;;;;5086070;28;20111;-38
2021/11/25 03:07:16;;;;;;;1.55;1.13;;;;;;;;;;5087789;28;20075;-38
2021/11/25 03:09:41;;;;;;;5.60;0.90;;;;;;;;;;5088112;28;20084;-38
2021/11/25 03:12:08;;;;;;;2.65;1.10;;;;;;;;;;5086000;28;20059;-41
2021/11/25 03:14:34;;;;;;;2.30;1.15;;;;;;;;;;5087598;28;20130;-38
2021/11/25 03:16:59;;;;;;;1.33;0.88;;;;;;;;;;5087698;28;20538;-38
2021/11/25 03:19:24;;;;;;;3.78;1.50;;;;;;;;;;5087554;28;20052;-38
2021/11/25 03:21:50;;;;;;;3.83;1.23;;;;;;;;;;5086886;28;20093;-38
2021/11/25 03:24:15;;;;;;;1.77;1.05;;;;;;;;;;5085544;28;20418;-39
2021/11/25 03:26:40;;;;;;;2.83;1.15;;;;;;;;;;5087283;28;20108;-40
2021/11/25 03:29:06;;;;;;;2.95;0.98;;;;;;;;;;5087496;28;20415;-38
2021/11/25 03:31:32;;;;;;;2.03;1.10;;;;;;;;;;5085706;28;20414;-38
2021/11/25 03:33:58;;;;;;;2.92;1.00;;;;;;;;;;5085354;28;20039;-38
2021/11/25 03:36:24;;;;;;;3.35;0.82;;;;;;;;;;5086642;28;20058;-39
2021/11/25 03:38:50;;;;;;;3.80;0.90;;;;;;;;;;5085463;28;20418;-40
2021/11/25 03:41:16;;;;;;;1.63;1.05;;;;;;;;;;5087136;28;20044;-41
2021/11/25 03:43:41;;;;;;;2.83;1.40;;;;;;;;;;5086402;28;20028;-40
2021/11/25 03:46:07;;;;;;;1.55;0.80;;;;;;;;;;5086356;28;20467;-39
2021/11/25 03:48:32;;;;;;;2.75;1.27;;;;;;;;;;5087105;28;20116;-38
2021/11/25 03:50:58;;;;;;;2.13;1.20;;;;;;;;;;5081015;28;20679;-40
2021/11/25 03:53:24;;;;;;;3.50;1.33;;;;;;;;;;5086641;28;20043;-40
2021/11/25 03:55:50;;;;;;;2.30;1.20;;;;;;;;;;5083475;28;20047;-38
2021/11/25 03:58:15;;;;;;;12.43;1.65;;;;;;;;;;5086394;28;20075;-39
2021/11/25 04:00:40;;;;;;;3.42;1.30;;;;;;;;;;5085381;28;20616;-38
2021/11/25 04:03:06;;;;;;;2.17;1.23;;;;;;;;;;5086225;28;20055;-40
2021/11/25 04:05:32;;;;;;;2.50;1.52;;;;;;;;;;5086683;28;20048;-40
2021/11/25 04:07:57;;;;;;;1.80;1.02;;;;;;;;;;5086673;28;20054;-41
2021/11/25 04:10:23;;;;;;;5.45;1.85;;;;;;;;;;5085316;28;20042;-39
2021/11/25 04:12:48;;;;;;;0.77;0.63;;;;;;;;;;5084987;28;20560;-38
2021/11/25 04:15:15;;;;;;;2.90;0.95;;;;;;;;;;5085732;28;20055;-38
2021/11/25 04:17:40;;;;;;;2.15;1.05;;;;;;;;;;5085895;28;20915;-38
2021/11/25 04:20:07;;;;;;;7.38;2.15;;;;;;;;;;5086407;28;20044;-38
2021/11/25 04:22:32;;;;;;;1.67;0.65;;;;;;;;;;5087085;28;20058;-38
2021/11/25 04:24:57;;;;;;;1.88;1.25;;;;;;;;;;5086176;28;20121;-40
2021/11/25 04:27:23;;;;;;;4.38;2.08;;;;;;;;;;5085445;28;20059;-38
2021/11/25 04:29:57;;;;;;;3.38;0.85;;;;;;;;;;5086449;28;20494;-41
2021/11/25 04:37:50;;;;;;;1.10;0.50;;;;;;;;;;5089881;28;20044;-39
2021/11/25 04:40:16;;;;;;;1.20;0.88;;;;;;;;;;5089555;28;20040;-38
2021/11/25 04:42:41;;;;;;;1.67;0.80;;;;;;;;;;5086273;28;20044;-38
2021/11/25 04:45:07;;;;;;;4.40;1.17;;;;;;;;;;5090420;28;20080;-38
2021/11/25 04:47:33;;;;;;;0.95;0.55;;;;;;;;;;5090268;28;20498;-40
2021/11/25 04:49:58;;;;;;;2.15;1.20;;;;;;;;;;5090464;28;20040;-38
2021/11/25 04:52:24;;;;;;;7.95;0.63;;;;;;;;;;5079214;28;20097;-38
2021/11/25 04:54:49;;;;;;;8.27;0.75;;;;;;;;;;5090584;28;20403;-37
2021/11/25 04:57:14;;;;;;;1.10;0.45;;;;;;;;;;5090287;28;20120;-38
2021/11/25 04:59:40;;;;;;;3.80;1.38;;;;;;;;;;5090195;28;20145;-38
2021/11/25 05:02:05;;;;;;;1.90;1.42;;;;;;;;;;5090007;28;20044;-39
2021/11/25 05:04:31;;;;;;;3.08;1.17;;;;;;;;;;5089982;28;20044;-40
2021/11/25 05:06:56;;;;;;;5.15;1.30;;;;;;;;;;5089920;28;20056;-40
2021/11/25 05:09:22;;;;;;;3.63;0.70;;;;;;;;;;5088080;28;20522;-39
2021/11/25 05:11:47;;;;;;;0.88;0.60;;;;;;;;;;5086040;28;20036;-40
2021/11/25 05:14:12;;;;;;;2.63;1.05;;;;;;;;;;5088454;28;20044;-41
2021/11/25 05:16:38;;;;;;;6.78;0.98;;;;;;;;;;5087365;28;20774;-40
2021/11/25 05:19:03;;;;;;;7.07;1.30;;;;;;;;;;5089993;28;20044;-40
2021/11/25 05:21:28;;;;;;;11.60;1.30;;;;;;;;;;5089637;28;20071;-40
2021/11/25 05:23:54;;;;;;;1.23;0.57;;;;;;;;;;5089747;28;20418;-42
2021/11/25 05:26:19;;;;;;;1.02;0.52;;;;;;;;;;5090019;28;20498;-39
2021/11/25 05:28:44;;;;;;;1.95;1.02;;;;;;;;;;5089858;28;20055;-39
2021/11/25 05:31:10;;;;;;;2.70;1.00;;;;;;;;;;5083750;28;20049;-40
2021/11/25 05:33:35;;;;;;;2.88;1.30;;;;;;;;;;5090216;28;20044;-41
2021/11/25 05:36:00;;;;;;;10.55;0.90;;;;;;;;;;5087172;28;20051;-40
2021/11/25 05:38:26;;;;;;;8.15;1.40;;;;;;;;;;5088801;28;20093;-40
2021/11/25 05:40:51;;;;;;;2.20;1.25;;;;;;;;;;5089726;28;20043;-42
2021/11/25 05:43:17;;;;;;;2.30;0.50;;;;;;;;;;5087234;28;20051;-42
2021/11/25 05:45:42;;;;;;;6.40;1.60;;;;;;;;;;5086613;28;20567;-39
2021/11/25 05:48:08;;;;;;;3.92;1.80;;;;;;;;;;5086885;28;20453;-40
2021/11/25 05:50:33;;;;;;;2.47;1.50;;;;;;;;;;5085014;28;20036;-40
2021/11/25 05:52:59;;;;;;;2.70;1.75;;;;;;;;;;5088037;28;20164;-42
2021/11/25 05:55:27;;;;;;;3.08;1.15;;;;;;;;;;5086065;28;20098;-38
2021/11/25 05:57:52;;;;;;;4.20;1.33;;;;;;;;;;5087277;28;20058;-39
2021/11/25 06:00:18;;;;;;;2.67;0.73;;;;;;;;;;5089157;28;20043;-40
2021/11/25 06:02:45;;;;;;;3.47;2.45;;;;;;;;;;5089188;28;20128;-40
2021/11/25 06:05:12;;;;;;;5.50;1.45;;;;;;;;;;5088865;28;20533;-39
2021/11/25 06:07:41;;;;;;;5.70;3.08;;;;;;;;;;5088584;28;20116;-39
2021/11/25 06:10:06;;;;;;;2.42;1.90;;;;;;;;;;5088158;28;20127;-39
2021/11/25 06:12:31;;;;;;;2.58;1.90;;;;;;;;;;5087208;28;20123;-39
2021/11/25 06:14:57;;;;;;;11.93;3.10;;;;;;;;;;5088611;28;20388;-40
2021/11/25 06:17:22;;;;;;;10.10;5.45;;;;;;;;;;5088812;28;20044;-38
2021/11/25 06:19:48;;;;;;;11.52;6.45;;;;;;;;;;5088140;28;20146;-39
2021/11/25 06:22:13;;;;;;;6.30;2.28;;;;;;;;;;5087001;28;20047;-39
2021/11/25 06:24:38;;;;;;;3.05;1.83;;;;;;;;;;5087322;28;20502;-39
2021/11/25 06:27:04;;;;;;;2.25;1.27;;;;;;;;;;5084780;28;20326;-38
2021/11/25 06:29:29;;;;;;;3.80;1.67;;;;;;;;;;5086599;28;20036;-39
2021/11/25 06:31:54;;;;;;;2.03;1.02;;;;;;;;;;5085899;28;20734;-40
2021/11/25 06:34:20;;;;;;;1.83;1.25;;;;;;;;;;5087767;28;20040;-38
2021/11/25 06:36:45;;;;;;;1.40;0.38;;;;;;;;;;5087885;28;20483;-38
2021/11/25 06:39:11;;;;;;;5.45;1.42;;;;;;;;;;5088318;28;20044;-39
2021/11/25 06:41:37;;;;;;;4.40;0.75;;;;;;;;;;5088086;28;20040;-38
2021/11/25 06:44:02;;;;;;;2.33;1.33;;;;;;;;;;5087811;28;20185;-38
2021/11/25 06:46:27;;;;;;;4.20;1.67;;;;;;;;;;5086786;28;20498;-38
2021/11/25 06:48:53;;;;;;;3.30;0.90;;;;;;;;;;5087326;28;20051;-38
2021/11/25 06:51:18;;;;;;;2.97;1.75;;;;;;;;;;5084315;28;20070;-38
2021/11/25 06:53:46;;;;;;;2.50;1.33;;;;;;;;;;5086859;28;20135;-38
2021/11/25 06:56:11;;;;;;;4.60;2.10;;;;;;;;;;5087379;28;20052;-38
2021/11/25 06:58:36;;;;;;;5.05;1.98;;;;;;;;;;5087815;28;20549;-39
2021/11/25 07:01:05;;;;;;;1.80;1.08;;;;;;;;;;5087931;28;20044;-38
2021/11/25 07:03:33;;;;;;;6.35;5.60;;;;;;;;;;5085513;28;20107;-38
2021/11/25 07:05:58;;;;;;;6.82;4.97;;;;;;;;;;5087892;28;20125;-39
2021/11/25 07:08:24;;;;;;;3.53;3.20;;;;;;;;;;5087053;28;20048;-38
2021/11/25 07:10:49;;;;;;;6.75;3.40;;;;;;;;;;5082927;28;20050;-37
2021/11/25 07:13:15;;;;;;;3.65;2.25;;;;;;;;;;5089052;28;20610;-38
2021/11/25 07:15:40;;;;;;;6.03;2.10;;;;;;;;;;5086968;28;20475;-38
2021/11/25 07:18:06;;;;;;;5.60;3.03;;;;;;;;;;5084635;28;20035;-37
2021/11/25 07:20:31;;;;;;;10.43;6.35;;;;;;;;;;5084506;28;20502;-38
2021/11/25 07:22:57;;;;;;;7.18;4.75;;;;;;;;;;5083117;28;20039;-38
2021/11/25 07:25:24;;;;;;;3.65;2.50;;;;;;;;;;5084070;28;20123;-37
2021/11/25 07:27:49;;;;;;;4.93;1.67;;;;;;;;;;5085454;28;20056;-38
2021/11/25 07:30:16;;;;;;;5.82;3.67;;;;;;;;;;5076588;28;20054;-38
2021/11/25 07:32:41;;;;;;;4.82;1.88;;;;;;;;;;5079944;28;20725;-38
2021/11/25 07:35:08;;;;;;;2.40;1.00;;;;;;;;;;5072340;28;20108;-37
2021/11/25 07:37:33;;;;;;;1.25;0.88;;;;;;;;;;5081002;28;20035;-37
2021/11/25 07:39:58;;;;;;;1.95;1.40;;;;;;;;;;5080410;28;20108;-39
2021/11/25 07:42:24;;;;;;;7.78;5.03;;;;;;;;;;5084332;28;20040;-37
2021/11/25 07:44:49;;;;;;;2.90;1.40;;;;;;;;;;5080885;28;20040;-37
2021/11/25 07:47:20;;;;;;;3.65;2.65;;;;;;;;;;5084251;28;20091;-38
2021/11/25 07:49:45;;;;;;;4.43;2.00;;;;;;;;;;5083271;28;20059;-37
2021/11/25 07:52:10;;;;;;;1.85;1.30;;;;;;;;;;5084856;28;20048;-37
2021/11/25 07:54:36;;;;;;;5.32;1.25;;;;;;;;;;5081989;28;20057;-36
2021/11/25 07:57:01;;;;;;;4.50;1.80;;;;;;;;;;5082900;28;20040;-37
2021/11/25 07:59:30;;;;;;;4.10;2.42;;;;;;;;;;5082671;28;20055;-37
2021/11/25 08:01:58;;;;;;;2.88;2.20;;;;;;;;;;5086635;28;20035;-37
2021/11/25 08:04:23;;;;;;;16.00;8.48;;;;;;;;;;5086196;28;20511;-37
2021/11/25 08:06:49;;;;;;;18.00;13.65;;;;;;;;;;5081536;28;20036;-37
2021/11/25 08:09:14;;;;;;;14.02;11.32;;;;;;;;;;5086247;28;20430;-37
2021/11/25 08:11:40;;;;;;;7.38;2.55;;;;;;;;;;5085986;28;20495;-37
2021/11/25 08:14:05;;;;;;;4.78;1.45;;;;;;;;;;5085502;28;20059;-37
2021/11/25 08:16:30;;;;;;;5.90;1.65;;;;;;;;;;5084532;28;20473;-37
2021/11/25 08:18:55;;;;;;;5.57;1.80;;;;;;;;;;5082391;28;20048;-37
2021/11/25 08:21:22;;;;;;;1.17;0.63;;;;;;;;;;5082637;28;20499;-36
2021/11/25 08:23:48;;;;;;;1.58;1.08;;;;;;;;;;5084063;28;20055;-37
2021/11/25 08:26:13;;;;;;;1.63;0.77;;;;;;;;;;5084444;28;20040;-37
2021/11/25 08:28:39;;;;;;;48.47;24.55;;;;;;;;;;5085299;28;20044;-37
2021/11/25 08:31:06;;;;;;;10.57;7.35;;;;;;;;;;5085197;28;20082;-36
2021/11/25 08:33:32;;;;;;;1.77;1.10;;;;;;;;;;5085681;28;20059;-39
2021/11/25 08:35:58;;;;;;;3.85;2.08;;;;;;;;;;5083966;28;20047;-39
2021/11/25 08:38:23;;;;;;;2.30;1.45;;;;;;;;;;5086025;28;20032;-37
2021/11/25 08:40:48;;;;;;;6.57;0.93;;;;;;;;;;5087079;28;20117;-38
2021/11/25 08:43:14;;;;;;;3.75;1.38;;;;;;;;;;5085276;28;20669;-38
2021/11/25 08:45:40;;;;;;;7.43;4.28;;;;;;;;;;5084552;28;20063;-38
2021/11/25 08:48:07;;;;;;;25.70;14.38;;;;;;;;;;5085428;28;20124;-37
2021/11/25 08:50:33;;;;;;;5.05;2.78;;;;;;;;;;5085452;28;20036;-37
2021/11/25 08:52:59;;;;;;;0.82;0.60;;;;;;;;;;5085670;28;20028;-38
2021/11/25 08:55:24;;;;;;;1.30;0.85;;;;;;;;;;5085383;28;20054;-37
2021/11/25 08:57:50;;;;;;;2.35;1.73;;;;;;;;;;5085694;28;20487;-37
2021/11/25 09:00:16;;;;;;;2.40;0.95;;;;;;;;;;5077144;28;20052;-38
2021/11/25 09:02:42;;;;;;;2.63;1.42;;;;;;;;;;5081823;28;20047;-37
2021/11/25 09:05:08;;;;;;;7.32;3.42;;;;;;;;;;5068445;28;20047;-39
2021/11/25 09:07:34;;;;;;;6.57;5.00;;;;;;;;;;5081776;28;20062;-38
2021/11/25 09:09:59;;;;;;;11.32;6.90;;;;;;;;;;5081889;28;20044;-38
2021/11/25 09:12:25;;;;;;;11.43;6.38;;;;;;;;;;5080438;28;20044;-39
2021/11/25 09:14:50;;;;;;;10.52;5.20;;;;;;;;;;5080502;28;20123;-39
2021/11/25 09:17:25;;;;;;;9.85;6.90;;;;;;;;;;5083535;28;20048;-39
2021/11/25 09:19:50;;;;;;;9.73;6.78;;;;;;;;;;5083460;28;20503;-39
2021/11/25 09:22:15;;;;;;;4.47;3.08;;;;;;;;;;5084219;28;20094;-38
2021/11/25 09:24:51;;;;;;;2.75;1.13;;;;;;;;;;5082510;28;20097;-39
2021/11/25 09:27:16;;;;;;;4.15;1.70;;;;;;;;;;5082037;28;20096;-39
2021/11/25 09:29:42;;;;;;;10.90;2.92;;;;;;;;;;5076998;28;20052;-39
2021/11/25 09:32:07;;;;;;;4.45;1.63;;;;;;;;;;5084846;28;20070;-38
2021/11/25 09:34:33;;;;;;;2.50;0.77;;;;;;;;;;5083760;28;20044;-37
2021/11/25 09:36:58;;;;;;;14.68;9.77;;;;;;;;;;5085383;28;20057;-40
2021/11/25 09:39:25;;;;;;;11.57;6.55;;;;;;;;;;5084395;28;20656;-40
2021/11/25 09:41:52;;;;;;;17.40;7.90;;;;;;;;;;5085061;28;20040;-40
2021/11/25 09:44:17;;;;;;;11.40;4.70;;;;;;;;;;5082911;28;20055;-39
2021/11/25 09:46:47;;;;;;;17.42;7.70;;;;;;;;;;5084859;28;20063;-39
2021/11/25 09:49:13;;;;;;;18.45;12.27;;;;;;;;;;5084058;28;20039;-38
2021/11/25 09:51:38;;;;;;;7.82;4.93;;;;;;;;;;5080873;28;20048;-40
2021/11/25 09:54:04;;;;;;;5.00;2.67;;;;;;;;;;5081551;28;20044;-41
2021/11/25 09:56:29;;;;;;;2.22;1.13;;;;;;;;;;5082730;28;20044;-39
2021/11/25 09:58:54;;;;;;;1.05;0.85;;;;;;;;;;5081439;28;20036;-39
2021/11/25 10:01:21;;;;;;;1.75;0.77;;;;;;;;;;5084155;28;20036;-37
2021/11/25 10:03:50;;;;;;;2.67;1.92;;;;;;;;;;5084237;28;20043;-39
2021/11/25 10:06:17;;;;;;;2.15;1.02;;;;;;;;;;5080815;28;20051;-39
2021/11/25 10:08:49;;;;;;;0.68;0.40;;;;;;;;;;5083499;28;20044;-39
2021/11/25 10:11:16;;;;;;;1.33;0.73;;;;;;;;;;5083460;28;20569;-39
2021/11/25 10:13:41;;;;;;;0.93;0.65;;;;;;;;;;5081847;28;20035;-36
2021/11/25 10:16:10;;;;;;;2.53;1.05;;;;;;;;;;5079084;28;20059;-37
2021/11/25 10:18:36;;;;;;;4.07;1.95;;;;;;;;;;5079329;28;20047;-38
2021/11/25 10:21:07;;;;;;;9.15;1.35;;;;;;;;;;5085185;28;20047;-38
2021/11/25 10:23:33;;;;;;;1.05;0.73;;;;;;;;;;5083471;28;20048;-38
2021/11/25 10:26:00;;;;;;;4.82;2.40;;;;;;;;;;5084306;28;20525;-37
2021/11/25 10:28:47;;;;;;;11.57;9.40;;;;;;;;;;5083920;28;20104;-38
2021/11/25 10:31:14;;;;;;;11.02;4.90;;;;;;;;;;5078958;28;20051;-38
2021/11/25 10:34:16;;;;;;;9.70;2.03;;;;;;;;;;5083800;28;20051;-38
2021/11/25 10:36:50;;;;;;;4.43;2.63;;;;;;;;;;5078430;28;20464;-39
2021/11/25 10:39:27;;;;;;;1.88;0.77;;;;;;;;;;5085395;28;20040;-38
2021/11/25 10:41:58;;;;;;;4.10;2.55;;;;;;;;;;5084521;28;20061;-56
2021/11/25 10:44:30;;;;;;;5.05;2.10;;;;;;;;;;5083729;28;20083;-47
2021/11/25 10:47:05;;;;;;;4.82;2.70;;;;;;;;;;5087011;28;20044;-45
2021/11/25 10:49:39;;;;;;;4.15;2.67;;;;;;;;;;5088202;28;20044;-44
2021/11/25 10:52:08;;;;;;;7.65;4.78;;;;;;;;;;5083267;28;20153;-44
2021/11/25 10:54:34;;;;;;;5.80;2.88;;;;;;;;;;5085913;28;20059;-44
2021/11/25 10:57:02;;;;;;;3.95;2.53;;;;;;;;;;5087654;28;20032;-47
2021/11/25 10:59:38;;;;;;;4.20;3.80;;;;;;;;;;5085043;28;20044;-44
2021/11/25 11:02:16;;;;;;;8.52;6.10;;;;;;;;;;5085520;28;20615;-44
2021/11/25 11:04:45;;;;;;;8.88;7.97;;;;;;;;;;5085754;28;20048;-49
2021/11/25 11:07:40;;;;;;;14.68;10.98;;;;;;;;;;5086616;28;20046;-47
2021/11/25 11:10:19;;;;;;;13.88;8.77;;;;;;;;;;5081869;28;20042;-43
2021/11/25 11:12:56;;;;;;;8.98;6.20;;;;;;;;;;5085887;28;20142;-47
2021/11/25 11:20:49;;;;;;;5.32;3.15;;;;;;;;;;5054912;28;20039;-46
2021/11/25 11:23:23;;;;;;;7.32;5.15;;;;;;;;;;5084442;28;20043;-43
2021/11/25 11:25:49;;;;;;;15.32;6.72;;;;;;;;;;5084843;28;20032;-48
2021/11/25 11:28:14;;;;;;;3.42;3.10;;;;;;;;;;5084901;28;20032;-45
2021/11/25 11:30:40;;;;;;;3.75;3.00;;;;;;;;;;5084988;28;20476;-47
2021/11/25 11:33:07;;;;;;;3.95;2.33;;;;;;;;;;5086371;28;20131;-46
2021/11/25 11:35:32;;;;;;;3.63;2.78;;;;;;;;;;5086433;28;20047;-44
2021/11/25 11:38:00;;;;;;;3.55;1.90;;;;;;;;;;5086111;28;20048;-44
2021/11/25 11:40:27;;;;;;;20.08;9.40;;;;;;;;;;5086008;28;20125;-44
2021/11/25 11:42:53;;;;;;;7.90;4.00;;;;;;;;;;5083284;28;20047;-47
2021/11/25 11:45:20;;;;;;;4.07;3.05;;;;;;;;;;5084092;28;20048;-42
2021/11/25 11:47:48;;;;;;;2.17;1.48;;;;;;;;;;5085586;28;20091;-44
2021/11/25 11:50:14;;;;;;;1.10;0.70;;;;;;;;;;5078075;28;20051;-47
2021/11/25 11:52:53;;;;;;;11.60;8.02;;;;;;;;;;5083264;28;20048;-44
2021/11/25 11:55:26;;;;;;;6.03;3.72;;;;;;;;;;5082779;28;20044;-46
2021/11/25 11:57:52;;;;;;;7.93;3.70;;;;;;;;;;5083929;28;20036;-48
2021/11/25 12:00:20;;;;;;;5.35;3.10;;;;;;;;;;5084206;28;20036;-44
2021/11/25 12:02:47;;;;;;;8.57;4.07;;;;;;;;;;5086099;28;20491;-45
2021/11/25 12:05:31;;;;;;;6.82;4.65;;;;;;;;;;5079005;28;20052;-42
2021/11/25 12:08:16;;;;;;;7.32;3.60;;;;;;;;;;5082336;28;20040;-46
2021/11/25 12:11:00;;;;;;;7.82;4.03;;;;;;;;;;5085283;28;20098;-47
2021/11/25 12:13:30;;;;;;;6.72;4.55;;;;;;;;;;5082985;28;20067;-44
2021/11/25 12:16:14;;;;;;;10.32;8.35;;;;;;;;;;5084660;28;20359;-46
2021/11/25 12:18:39;;;;;;;15.95;9.98;;;;;;;;;;5084433;28;20085;-47
2021/11/25 12:21:04;;;;;;;26.58;17.55;;;;;;;;;;5085182;28;20427;-44
2021/11/25 12:23:35;;;;;;;4.25;2.92;;;;;;;;;;5085802;28;20053;-43
2021/11/25 12:26:01;;;;;;;2.75;1.40;;;;;;;;;;5086353;28;20048;-44
2021/11/25 12:28:28;;;;;;;3.13;1.15;;;;;;;;;;5086185;28;20126;-45
2021/11/25 12:31:10;;;;;;;4.90;3.00;;;;;;;;;;5085937;28;20185;-45
2021/11/25 12:33:40;;;;;;;27.67;9.43;;;;;;;;;;5084269;28;20550;-43
2021/11/25 12:36:05;;;;;;;15.80;4.78;;;;;;;;;;5085442;28;20083;-41
2021/11/25 12:38:35;;;;;;;7.20;5.55;;;;;;;;;;5081249;28;20569;-44
2021/11/25 12:41:01;;;;;;;9.95;7.05;;;;;;;;;;5085258;28;20137;-44
2021/11/25 12:43:29;;;;;;;12.95;8.52;;;;;;;;;;5085426;28;20044;-44
2021/11/25 12:46:03;;;;;;;6.25;4.00;;;;;;;;;;5084184;28;20452;-44
2021/11/25 12:48:30;;;;;;;1.95;1.17;;;;;;;;;;5085593;28;20082;-44
2021/11/25 12:50:55;;;;;;;4.60;3.78;;;;;;;;;;5084823;28;20084;-42
2021/11/25 12:53:22;;;;;;;4.03;2.40;;;;;;;;;;5085995;28;20052;-46
2021/11/25 12:55:55;;;;;;;5.40;2.30;;;;;;;;;;5089439;28;20040;-45
2021/11/25 12:58:29;;;;;;;5.03;2.42;;;;;;;;;;5089016;28;20057;-47
2021/11/25 13:00:54;;;;;;;1.80;1.42;;;;;;;;;;5088023;28;20491;-47
2021/11/25 13:03:20;;;;;;;14.07;10.77;;;;;;;;;;5087411;28;20048;-46
2021/11/25 13:05:49;;;;;;;19.50;12.20;;;;;;;;;;5087655;28;20048;-49
2021/11/25 13:08:42;;;;;;;20.10;11.65;;;;;;;;;;5087618;28;20068;-50
2021/11/25 13:11:20;;;;;;;8.23;7.03;;;;;;;;;;5085355;28;20052;-50
2021/11/25 13:13:50;;;;;;;11.27;7.18;;;;;;;;;;5083690;28;20066;-48
2021/11/25 13:16:16;;;;;;;9.40;4.43;;;;;;;;;;5087442;28;20032;-47
2021/11/25 13:18:54;;;;;;;9.85;8.82;;;;;;;;;;5085298;28;20756;-49
2021/11/25 13:21:31;;;;;;;11.90;9.45;;;;;;;;;;5087602;28;20048;-46
2021/11/25 13:23:58;;;;;;;15.50;7.30;;;;;;;;;;5087363;28;20054;-52
2021/11/25 13:26:24;;;;;;;7.45;4.75;;;;;;;;;;5085354;28;20048;-52
2021/11/25 13:28:51;;;;;;;7.05;3.72;;;;;;;;;;5088052;28;20040;-47
2021/11/25 13:31:21;;;;;;;16.88;9.98;;;;;;;;;;5087065;28;20048;-53
2021/11/25 13:33:52;;;;;;;8.88;6.85;;;;;;;;;;5088101;28;20059;-46
2021/11/25 13:36:18;;;;;;;7.28;5.68;;;;;;;;;;5088453;28;20032;-56
2021/11/25 13:38:49;;;;;;;9.00;6.93;;;;;;;;;;5086026;28;20415;-50
2021/11/25 13:41:14;;;;;;;9.55;8.55;;;;;;;;;;5087861;28;20059;-50
2021/11/25 13:43:47;;;;;;;13.45;9.02;;;;;;;;;;5086055;28;20043;-47
2021/11/25 13:46:12;;;;;;;25.13;12.98;;;;;;;;;;5085875;28;20066;-48
2021/11/25 13:48:37;;;;;;;16.35;10.30;;;;;;;;;;5082982;28;20578;-50
2021/11/25 13:51:03;;;;;;;15.25;13.55;;;;;;;;;;5081070;28;20056;-50
2021/11/25 13:53:30;;;;;;;25.67;21.85;;;;;;;;;;5088699;28;20040;-48
2021/11/25 13:55:56;;;;;;;36.05;16.95;;;;;;;;;;5087113;28;20052;-46
2021/11/25 13:58:24;;;;;;;20.92;12.35;;;;;;;;;;5086569;28;20458;-46
2021/11/25 14:00:51;;;;;;;23.15;18.10;;;;;;;;;;5085745;28;20121;-47
2021/11/25 14:03:18;;;;;;;18.08;12.10;;;;;;;;;;5088256;28;20127;-50
2021/11/25 14:05:47;;;;;;;21.58;13.35;;;;;;;;;;5086878;28;20044;-49
2021/11/25 14:08:13;;;;;;;12.43;11.32;;;;;;;;;;5083948;28;20080;-46
2021/11/25 14:10:38;;;;;;;14.52;13.00;;;;;;;;;;5085971;28;20162;-51
2021/11/25 14:13:05;;;;;;;13.30;11.60;;;;;;;;;;5083001;28;20052;-47
2021/11/25 14:15:32;;;;;;;15.20;10.00;;;;;;;;;;5087559;28;20530;-45
2021/11/25 14:17:59;;;;;;;9.65;8.57;;;;;;;;;;5086872;28;20036;-50
2021/11/25 14:20:28;;;;;;;12.43;7.15;;;;;;;;;;5088266;28;20036;-50
2021/11/25 14:22:56;;;;;;;7.30;6.53;;;;;;;;;;5085281;28;20066;-45
2021/11/25 14:25:33;;;;;;;14.50;11.88;;;;;;;;;;5085515;28;20097;-48
2021/11/25 14:31:05;;;;;;;11.02;8.15;;;;;;;;;;5085537;28;20185;-53
2021/11/25 14:33:41;;;;;;;6.93;6.07;;;;;;;;;;5087138;28;20047;-45
2021/11/25 14:36:16;;;;;;;7.45;5.55;;;;;;;;;;5085557;28;20036;-48
2021/11/25 14:38:41;;;;;;;2.42;2.00;;;;;;;;;;5082031;28;20047;-51
2021/11/25 14:41:06;;;;;;;8.50;7.70;;;;;;;;;;5081023;28;20040;-58
2021/11/25 14:43:32;;;;;;;7.22;6.38;;;;;;;;;;5086682;28;20467;-54
2021/11/25 14:45:57;;;;;;;7.85;6.97;;;;;;;;;;5087195;28;20595;-49
2021/11/25 14:48:26;;;;;;;9.82;8.40;;;;;;;;;;5084384;28;20410;-52
2021/11/25 14:51:04;;;;;;;8.25;6.05;;;;;;;;;;5083717;28;20040;-54
2021/11/25 14:53:31;;;;;;;7.43;4.20;;;;;;;;;;5085500;28;20028;-48
2021/11/25 14:55:58;;;;;;;4.45;3.15;;;;;;;;;;5082503;28;20086;-50